Time;durP1;ratioP1;P1;durP2;ratioP2;P2;SDS_P1;SDS_P2;PMS_P1;PMS_P2;Temp;Humidity;BMP_temperature;BMP_pressure;BME280_temperature;BME280_humidity;BME280_pressure;Samples;Min_cycle;Max_cycle;Signal;HPM_P1;HPM_P2
2022/05/24 00:00:48;;;;;;;;;;;15.10;88.90;;;;;;4957488;28;19945;-77
2022/05/24 00:03:14;;;;;;;;;;;15.10;88.60;;;;;;4955624;28;20009;-76
2022/05/24 00:05:39;;;;;;;;;;;15.00;88.50;;;;;;4958223;28;20572;-76
2022/05/24 00:08:06;;;;;;;;;;;15.00;88.50;;;;;;4945928;28;19918;-76
2022/05/24 00:10:32;;;;;;;;;;;15.10;88.80;;;;;;4957989;28;20306;-76
2022/05/24 00:12:58;;;;;;;;;;;15.10;88.70;;;;;;4959663;28;19922;-76
2022/05/24 00:15:24;;;;;;;;;;;15.10;88.90;;;;;;4956268;28;19918;-76
2022/05/24 00:17:54;;;;;;;;;;;15.10;88.80;;;;;;4958071;28;19925;-75
2022/05/24 00:20:21;;;;;;;;;;;15.10;89.10;;;;;;4954749;28;19925;-76
2022/05/24 00:22:47;;;;;;;;;;;15.10;89.40;;;;;;4958852;28;20017;-76
2022/05/24 00:25:12;;;;;;;;;;;15.20;89.20;;;;;;4958502;28;20451;-76
2022/05/24 00:27:38;;;;;;;;;;;15.10;89.00;;;;;;4958972;28;20330;-76
2022/05/24 00:30:04;;;;;;;;;;;15.10;88.50;;;;;;4955636;28;20014;-76
2022/05/24 00:32:30;;;;;;;;;;;15.10;88.40;;;;;;4960418;28;19918;-76
2022/05/24 00:34:55;;;;;;;;;;;15.10;88.40;;;;;;4946121;28;19930;-76
2022/05/24 00:37:23;;;;;;;;;;;15.10;88.40;;;;;;4955666;28;19921;-76
2022/05/24 00:39:48;;;;;;;;;;;15.10;88.50;;;;;;4960042;28;19930;-76
2022/05/24 00:42:19;;;;;;;;;;;15.10;88.70;;;;;;4958570;28;19940;-77
2022/05/24 00:45:06;;;;;;;;;;;15.20;88.70;;;;;;4958466;28;20259;-76
2022/05/24 00:47:32;;;;;;;;;;;15.10;88.80;;;;;;4957716;28;20362;-76
2022/05/24 00:50:24;;;;;;;;;;;15.20;88.70;;;;;;4959871;28;19918;-76
2022/05/24 00:52:55;;;;;;;;;;;15.20;88.60;;;;;;4955973;28;19918;-76
2022/05/24 00:55:22;;;;;;;;;;;15.30;88.60;;;;;;4955671;28;19914;-76
2022/05/24 00:58:11;;;;;;;;;;;15.20;88.50;;;;;;4957440;28;19918;-76
2022/05/24 01:00:36;;;;;;;;;;;15.20;88.50;;;;;;4959097;28;19918;-76
2022/05/24 01:03:02;;;;;;;;;;;15.20;88.40;;;;;;4962013;28;20311;-76
2022/05/24 01:05:29;;;;;;;;;;;15.20;88.50;;;;;;4968400;28;19965;-76
2022/05/24 01:07:55;;;;;;;;;;;15.10;88.60;;;;;;4960876;28;20001;-76
2022/05/24 01:10:26;;;;;;;;;;;15.10;88.60;;;;;;4961508;28;19918;-76
2022/05/24 01:12:54;;;;;;;;;;;15.10;88.60;;;;;;4963510;28;19914;-76
2022/05/24 01:15:20;;;;;;;;;;;15.10;88.50;;;;;;4954123;28;20482;-77
2022/05/24 01:17:46;;;;;;;;;;;15.10;88.50;;;;;;4945072;28;19922;-76
2022/05/24 01:20:13;;;;;;;;;;;15.10;88.40;;;;;;4984980;28;20392;-77
2022/05/24 01:22:47;;;;;;;;;;;15.10;88.60;;;;;;4957619;28;19914;-77
2022/05/24 01:25:22;;;;;;;;;;;15.20;88.60;;;;;;4960839;28;20406;-76
2022/05/24 01:27:47;;;;;;;;;;;15.10;89.00;;;;;;4960007;28;19969;-76
2022/05/24 01:30:13;;;;;;;;;;;15.10;89.20;;;;;;4957613;28;19926;-76
2022/05/24 01:38:11;;;;;;;;;;;15.00;89.30;;;;;;4962971;28;20025;-76
2022/05/24 01:40:37;;;;;;;;;;;15.00;89.50;;;;;;4963984;28;20181;-77
2022/05/24 01:43:02;;;;;;;;;;;15.00;89.60;;;;;;4961513;28;19957;-76
2022/05/24 01:45:44;;;;;;;;;;;15.00;89.20;;;;;;4962678;28;19918;-76
2022/05/24 01:48:12;;;;;;;;;;;15.10;89.20;;;;;;4968775;28;19925;-76
2022/05/24 01:50:38;;;;;;;;;;;15.10;89.20;;;;;;4961462;28;19941;-76
2022/05/24 01:53:09;;;;;;;;;;;15.10;89.10;;;;;;4961685;28;19923;-76
2022/05/24 01:55:39;;;;;;;;;;;15.10;89.20;;;;;;4946846;28;19929;-75
2022/05/24 01:58:08;;;;;;;;;;;15.10;89.50;;;;;;4962222;28;20462;-75
2022/05/24 02:00:33;;;;;;;;;;;15.10;89.10;;;;;;4943467;28;20295;-76
2022/05/24 02:02:59;;;;;;;;;;;15.20;89.40;;;;;;4959928;28;19915;-75
2022/05/24 02:05:29;;;;;;;;;;;15.10;89.60;;;;;;4963254;28;19991;-75
2022/05/24 02:07:55;;;;;;;;;;;15.10;89.40;;;;;;4953737;28;19914;-75
2022/05/24 02:10:20;;;;;;;;;;;15.30;89.40;;;;;;4959582;28;19961;-75
2022/05/24 02:12:49;;;;;;;;;;;15.20;89.20;;;;;;4964613;28;19914;-75
2022/05/24 02:15:17;;;;;;;;;;;15.10;89.10;;;;;;4961770;28;20132;-75
2022/05/24 02:18:01;;;;;;;;;;;15.10;89.30;;;;;;4965642;28;19915;-75
2022/05/24 02:20:32;;;;;;;;;;;15.10;89.30;;;;;;4959542;28;20342;-75
2022/05/24 02:22:58;;;;;;;;;;;15.10;90.00;;;;;;4960246;28;19918;-75
2022/05/24 02:25:32;;;;;;;;;;;15.30;90.10;;;;;;4948372;28;19914;-75
2022/05/24 02:27:58;;;;;;;;;;;15.20;90.30;;;;;;4965622;28;19914;-75
2022/05/24 02:30:25;;;;;;;;;;;15.30;89.90;;;;;;4958653;28;19935;-76
2022/05/24 02:32:50;;;;;;;;;;;15.20;89.70;;;;;;4960822;28;20366;-75
2022/05/24 02:35:16;;;;;;;;;;;15.20;89.40;;;;;;4966273;28;19914;-75
2022/05/24 02:37:41;;;;;;;;;;;15.20;89.10;;;;;;4968787;23;20481;-80
2022/05/24 02:42:52;;;;;;;;;;;15.10;89.40;;;;;;5007094;28;19940;-80
2022/05/24 02:45:18;;;;;;;;;;;15.10;90.10;;;;;;5004882;28;20400;-79
2022/05/24 02:47:43;;;;;;;;;;;15.10;89.60;;;;;;5008588;28;19921;-80
2022/05/24 02:50:11;;;;;;;;;;;15.10;89.70;;;;;;5020820;28;19920;-80
2022/05/24 02:52:40;;;;;;;;;;;15.10;89.30;;;;;;5008158;28;20393;-80
2022/05/24 02:55:09;;;;;;;;;;;15.10;89.50;;;;;;5006320;28;19914;-80
2022/05/24 02:57:35;;;;;;;;;;;15.10;89.40;;;;;;5007661;28;19980;-80
2022/05/24 03:00:01;;;;;;;;;;;15.10;89.00;;;;;;5020020;28;19917;-79
2022/05/24 03:02:26;;;;;;;;;;;15.00;89.20;;;;;;5008939;28;19967;-79
2022/05/24 03:04:52;;;;;;;;;;;15.00;89.10;;;;;;5013917;28;19983;-80
2022/05/24 03:10:02;;;;;;;;;;;15.00;89.40;;;;;;5013341;28;19967;-79
2022/05/24 03:15:12;;;;;;;;;;;15.00;88.50;;;;;;5011548;28;19923;-80
2022/05/24 03:17:37;;;;;;;;;;;15.00;88.40;;;;;;5028053;28;19913;-80
2022/05/24 03:20:04;;;;;;;;;;;15.00;88.40;;;;;;5010234;28;20376;-80
2022/05/24 03:22:29;;;;;;;;;;;15.00;88.70;;;;;;5028477;28;19917;-80
2022/05/24 03:24:55;;;;;;;;;;;14.90;88.40;;;;;;5026570;28;19987;-81
2022/05/24 03:27:20;;;;;;;;;;;14.90;88.10;;;;;;5029557;28;19996;-80
2022/05/24 03:29:46;;;;;;;;;;;14.90;87.80;;;;;;5009169;28;19917;-81
2022/05/24 03:32:13;;;;;;;;;;;14.90;87.90;;;;;;5023899;28;19984;-81
2022/05/24 03:34:39;;;;;;;;;;;15.00;88.10;;;;;;5010676;28;19913;-80
2022/05/24 03:37:04;;;;;;;;;;;14.90;88.30;;;;;;5029107;28;20404;-80
2022/05/24 03:39:30;;;;;;;;;;;14.90;88.10;;;;;;5011618;28;20368;-80
2022/05/24 03:41:55;;;;;;;;;;;14.90;87.90;;;;;;5022816;28;19921;-80
2022/05/24 03:44:20;;;;;;;;;;;14.90;86.90;;;;;;5025420;28;19914;-81
2022/05/24 03:46:46;;;;;;;;;;;14.90;87.00;;;;;;5024341;28;19921;-81
2022/05/24 03:49:13;;;;;;;;;;;14.80;87.00;;;;;;5009808;28;19913;-80
2022/05/24 03:51:38;;;;;;;;;;;14.90;87.10;;;;;;5024415;28;20488;-81
2022/05/24 03:54:06;;;;;;;;;;;14.80;86.20;;;;;;5027752;28;20008;-81
2022/05/24 03:56:32;;;;;;;;;;;14.80;84.80;;;;;;5008747;28;19918;-80
2022/05/24 03:58:58;;;;;;;;;;;14.80;84.60;;;;;;5026729;28;19917;-81
2022/05/24 04:01:23;;;;;;;;;;;14.80;83.50;;;;;;5009521;28;19928;-82
2022/05/24 04:03:49;;;;;;;;;;;14.80;84.20;;;;;;5011299;28;20523;-80
2022/05/24 04:06:14;;;;;;;;;;;14.80;84.10;;;;;;5006129;28;19913;-80
2022/05/24 04:08:39;;;;;;;;;;;14.90;82.70;;;;;;5012797;28;19940;-81
2022/05/24 04:11:08;;;;;;;;;;;14.80;83.30;;;;;;5011810;28;19914;-81
2022/05/24 04:13:33;;;;;;;;;;;14.90;83.50;;;;;;5004724;28;20333;-80
2022/05/24 04:15:59;;;;;;;;;;;14.90;83.10;;;;;;5010628;28;19940;-81
2022/05/24 04:18:25;;;;;;;;;;;14.70;83.30;;;;;;5011404;28;19944;-80
2022/05/24 04:20:50;;;;;;;;;;;14.70;84.30;;;;;;5002026;28;19971;-81
2022/05/24 04:23:17;;;;;;;;;;;14.70;83.80;;;;;;5009464;28;20394;-82
2022/05/24 04:25:42;;;;;;;;;;;14.70;83.00;;;;;;5011156;28;19921;-82
2022/05/24 04:28:08;;;;;;;;;;;14.60;83.40;;;;;;5006172;28;20554;-80
2022/05/24 04:30:33;;;;;;;;;;;14.60;83.10;;;;;;5007582;28;19972;-80
2022/05/24 04:32:59;;;;;;;;;;;14.50;83.30;;;;;;5007567;28;19913;-82
2022/05/24 04:35:25;;;;;;;;;;;14.60;83.40;;;;;;5026578;28;20390;-81
2022/05/24 04:37:50;;;;;;;;;;;14.50;83.40;;;;;;5012401;28;19968;-81
2022/05/24 04:40:16;;;;;;;;;;;14.50;84.30;;;;;;4976511;28;19980;-81
2022/05/24 04:42:41;;;;;;;;;;;14.50;83.80;;;;;;4967931;28;19929;-80
2022/05/24 04:45:09;;;;;;;;;;;14.50;83.20;;;;;;4983793;28;19992;-80
2022/05/24 04:47:35;;;;;;;;;;;14.60;82.50;;;;;;4992098;28;20045;-81
2022/05/24 04:50:04;;;;;;;;;;;14.50;82.60;;;;;;5005358;28;20005;-81
2022/05/24 04:52:31;;;;;;;;;;;14.60;82.40;;;;;;4970365;28;20024;-81
2022/05/24 04:54:57;;;;;;;;;;;14.60;82.40;;;;;;4992653;28;19981;-85
2022/05/24 04:57:22;;;;;;;;;;;14.60;82.00;;;;;;4977434;28;19961;-81
2022/05/24 04:59:48;;;;;;;;;;;14.60;82.00;;;;;;4999354;28;19984;-80
2022/05/24 05:02:14;;;;;;;;;;;14.60;82.10;;;;;;4993479;28;19957;-81
2022/05/24 05:04:39;;;;;;;;;;;14.60;81.20;;;;;;4990289;28;19918;-81
2022/05/24 05:07:05;;;;;;;;;;;14.60;81.00;;;;;;4982447;28;19914;-82
2022/05/24 05:09:38;;;;;;;;;;;14.70;81.00;;;;;;4980179;28;20374;-80
2022/05/24 05:12:08;;;;;;;;;;;14.60;81.40;;;;;;4984154;28;19914;-81
2022/05/24 05:14:34;;;;;;;;;;;14.60;80.90;;;;;;4986901;28;19942;-82
2022/05/24 05:17:00;;;;;;;;;;;14.60;80.30;;;;;;4982617;28;19914;-82
2022/05/24 05:19:25;;;;;;;;;;;14.50;81.10;;;;;;4981432;28;20432;-82
2022/05/24 05:21:50;;;;;;;;;;;14.50;81.20;;;;;;4989190;28;19961;-81
2022/05/24 05:24:16;;;;;;;;;;;14.40;81.60;;;;;;4988338;28;19951;-81
2022/05/24 05:26:42;;;;;;;;;;;14.30;81.60;;;;;;4971114;28;20009;-82
2022/05/24 05:29:07;;;;;;;;;;;14.30;82.10;;;;;;4985840;28;19921;-80
2022/05/24 05:31:33;;;;;;;;;;;14.10;83.00;;;;;;4991791;28;19923;-80
2022/05/24 05:33:59;;;;;;;;;;;14.10;83.20;;;;;;4991632;28;19920;-81
2022/05/24 05:36:27;;;;;;;;;;;14.10;83.70;;;;;;4996537;28;19934;-78
2022/05/24 05:38:53;;;;;;;;;;;14.20;83.70;;;;;;4945671;28;1755240;-80
2022/05/24 05:41:20;;;;;;;;;;;14.10;83.80;;;;;;5007664;28;19974;-77
2022/05/24 05:43:45;;;;;;;;;;;14.10;84.20;;;;;;5006030;28;19944;-75
2022/05/24 05:46:11;;;;;;;;;;;14.10;84.20;;;;;;5005672;28;20532;-77
2022/05/24 05:48:37;;;;;;;;;;;14.00;84.30;;;;;;5008241;28;20370;-77
2022/05/24 05:51:04;;;;;;;;;;;14.00;84.60;;;;;;5021691;28;20026;-77
2022/05/24 05:53:29;;;;;;;;;;;14.10;84.90;;;;;;5008963;28;19914;-77
2022/05/24 05:55:55;;;;;;;;;;;13.90;85.30;;;;;;5022859;28;20289;-76
2022/05/24 05:58:20;;;;;;;;;;;13.90;85.30;;;;;;5007554;28;19914;-76
2022/05/24 06:00:49;;;;;;;;;;;13.80;85.10;;;;;;4998951;28;19917;-76
2022/05/24 06:03:15;;;;;;;;;;;13.80;84.60;;;;;;5004391;28;19967;-75
2022/05/24 06:05:42;;;;;;;;;;;13.70;85.10;;;;;;5003346;28;19913;-77
2022/05/24 06:08:08;;;;;;;;;;;13.60;86.30;;;;;;5007674;28;19947;-77
2022/05/24 06:10:34;;;;;;;;;;;13.70;86.10;;;;;;5006456;28;20000;-76
2022/05/24 06:13:00;;;;;;;;;;;13.70;86.10;;;;;;5003419;28;19992;-76
2022/05/24 06:15:25;;;;;;;;;;;13.60;86.10;;;;;;5005171;28;19920;-76
2022/05/24 06:17:52;;;;;;;;;;;13.60;87.10;;;;;;5006950;28;19928;-76
2022/05/24 06:20:18;;;;;;;;;;;13.50;86.70;;;;;;5002424;28;19925;-77
2022/05/24 06:22:44;;;;;;;;;;;13.60;87.20;;;;;;5009787;28;19917;-77
2022/05/24 06:25:09;;;;;;;;;;;13.60;87.10;;;;;;5007203;28;19920;-75
2022/05/24 06:27:35;;;;;;;;;;;13.60;87.00;;;;;;5009464;28;19910;-75
2022/05/24 06:30:00;;;;;;;;;;;13.60;87.40;;;;;;5010857;28;20209;-75
2022/05/24 06:32:26;;;;;;;;;;;13.60;87.60;;;;;;5013481;28;20301;-79
2022/05/24 06:34:53;;;;;;;;;;;13.60;87.20;;;;;;5035249;28;19952;-80
2022/05/24 06:37:19;;;;;;;;;;;13.60;87.50;;;;;;5029346;28;19975;-80
2022/05/24 06:39:44;;;;;;;;;;;13.80;86.90;;;;;;5014847;28;19936;-79
2022/05/24 06:42:10;;;;;;;;;;;13.70;86.60;;;;;;5023234;28;19914;-80
2022/05/24 06:44:35;;;;;;;;;;;13.70;86.90;;;;;;5038874;28;19963;-82
2022/05/24 06:47:01;;;;;;;;;;;13.70;86.90;;;;;;5031562;28;19921;-81
2022/05/24 06:49:26;;;;;;;;;;;13.70;87.10;;;;;;5039243;28;19916;-81
2022/05/24 06:51:52;;;;;;;;;;;13.70;87.10;;;;;;5024614;28;19913;-82
2022/05/24 06:54:18;;;;;;;;;;;13.70;87.00;;;;;;5041011;28;19913;-82
2022/05/24 06:56:43;;;;;;;;;;;13.60;87.00;;;;;;5020559;28;20350;-81
2022/05/24 07:04:38;;;;;;;;;;;13.40;87.20;;;;;;5014184;28;19928;-79
2022/05/24 07:07:04;;;;;;;;;;;13.30;86.50;;;;;;5015844;28;20004;-78
2022/05/24 07:09:31;;;;;;;;;;;13.30;87.80;;;;;;5021408;28;19914;-78
2022/05/24 07:11:57;;;;;;;;;;;13.30;87.70;;;;;;5011226;28;19922;-80
2022/05/24 07:14:23;;;;;;;;;;;13.30;87.30;;;;;;5024947;28;19913;-79
2022/05/24 07:16:48;;;;;;;;;;;13.30;87.40;;;;;;5007863;28;20315;-79
2022/05/24 07:19:14;;;;;;;;;;;13.50;87.60;;;;;;5017444;28;19933;-79
2022/05/24 07:21:39;;;;;;;;;;;13.50;86.90;;;;;;5003788;28;19922;-79
2022/05/24 07:24:05;;;;;;;;;;;13.60;86.70;;;;;;5020980;28;19913;-79
2022/05/24 07:26:30;;;;;;;;;;;13.80;86.30;;;;;;4998856;28;19914;-79
2022/05/24 07:28:56;;;;;;;;;;;13.80;85.20;;;;;;5007810;28;19924;-78
2022/05/24 07:31:21;;;;;;;;;;;13.90;86.30;;;;;;5014477;28;19940;-78
2022/05/24 07:33:47;;;;;;;;;;;13.90;84.80;;;;;;5022790;28;19957;-78
2022/05/24 07:36:12;;;;;;;;;;;13.90;85.80;;;;;;5012429;28;19920;-78
2022/05/24 07:38:38;;;;;;;;;;;13.80;84.90;;;;;;5026324;28;19929;-80
2022/05/24 07:46:33;;;;;;;;;;;13.70;85.20;;;;;;5002260;28;19927;-79
2022/05/24 07:48:58;;;;;;;;;;;13.60;84.90;;;;;;5006482;28;19977;-79
2022/05/24 07:51:24;;;;;;;;;;;13.60;85.30;;;;;;5015429;28;20004;-79
2022/05/24 07:53:50;;;;;;;;;;;13.70;84.90;;;;;;5004703;28;19932;-79
2022/05/24 07:56:18;;;;;;;;;;;13.90;85.80;;;;;;5024537;28;20381;-79
2022/05/24 07:58:44;;;;;;;;;;;14.00;84.50;;;;;;5024702;28;19917;-78
2022/05/24 08:01:10;;;;;;;;;;;14.10;84.10;;;;;;5031896;28;19920;-80
2022/05/24 08:03:35;;;;;;;;;;;14.30;83.90;;;;;;5026688;28;19937;-81
2022/05/24 08:06:02;;;;;;;;;;;14.40;82.80;;;;;;5006264;28;19968;-82
2022/05/24 08:08:27;;;;;;;;;;;14.40;83.60;;;;;;5009502;28;19928;-80
2022/05/24 08:10:53;;;;;;;;;;;14.20;82.10;;;;;;5026447;28;19922;-81
2022/05/24 08:13:19;;;;;;;;;;;14.10;83.20;;;;;;5002738;28;19927;-82
2022/05/24 08:15:45;;;;;;;;;;;14.20;84.00;;;;;;5007058;28;19972;-81
2022/05/24 08:18:10;;;;;;;;;;;14.20;82.60;;;;;;5000993;28;20234;-80
2022/05/24 08:20:36;;;;;;;;;;;14.20;83.50;;;;;;5015372;28;19997;-80
2022/05/24 08:23:02;;;;;;;;;;;14.20;82.60;;;;;;4997560;28;19910;-81
2022/05/24 08:25:28;;;;;;;;;;;14.40;83.20;;;;;;5019608;28;20328;-81
2022/05/24 08:27:54;;;;;;;;;;;14.50;82.90;;;;;;5018593;28;19924;-81
2022/05/24 08:30:20;;;;;;;;;;;14.60;82.00;;;;;;5030780;28;20298;-81
2022/05/24 08:32:48;;;;;;;;;;;14.80;82.30;;;;;;5021319;28;19913;-81
2022/05/24 08:35:15;;;;;;;;;;;14.80;81.40;;;;;;5007185;28;19924;-81
2022/05/24 08:40:07;;;;;;;;;;;15.00;78.90;;;;;;5026006;23;20364;-83
2022/05/24 08:42:36;;;;;;;;;;;15.00;79.60;;;;;;4991813;28;19913;-84
2022/05/24 08:50:42;;;;;;;;;;;15.30;78.20;;;;;;5019920;28;20035;-86
2022/05/24 08:53:10;;;;;;;;;;;15.30;77.10;;;;;;4993376;28;19925;-84
2022/05/24 08:55:40;;;;;;;;;;;15.20;77.20;;;;;;5025330;28;19913;-83
2022/05/24 08:58:10;;;;;;;;;;;15.30;77.20;;;;;;5000428;28;19935;-86
2022/05/24 09:00:37;;;;;;;;;;;15.40;77.00;;;;;;5013441;28;20337;-84
2022/05/24 09:03:04;;;;;;;;;;;15.50;74.60;;;;;;5014155;28;19924;-84
2022/05/24 09:05:33;;;;;;;;;;;15.50;73.40;;;;;;5013817;28;19921;-84
2022/05/24 09:07:58;;;;;;;;;;;15.30;74.10;;;;;;5005380;28;19909;-82
2022/05/24 09:10:28;;;;;;;;;;;15.20;74.50;;;;;;5013404;28;19917;-80
2022/05/24 09:12:53;;;;;;;;;;;15.40;75.00;;;;;;5021260;28;19910;-80
2022/05/24 09:15:52;;;;;;;;;;;15.60;75.30;;;;;;4993340;28;20401;-82
2022/05/24 09:18:20;;;;;;;;;;;16.00;74.20;;;;;;4964143;28;19989;-81
2022/05/24 09:20:45;;;;;;;;;;;16.00;73.30;;;;;;5014624;28;19921;-82
2022/05/24 09:23:24;;;;;;;;;;;16.30;72.50;;;;;;4988802;28;19914;-81
2022/05/24 09:25:57;;;;;;;;;;;16.10;72.00;;;;;;4994204;28;19937;-82
2022/05/24 09:28:52;;;;;;;;;;;15.90;71.40;;;;;;5015006;28;19914;-80
2022/05/24 09:31:27;;;;;;;;;;;15.90;72.00;;;;;;4981191;28;19914;-81
2022/05/24 09:33:55;;;;;;;;;;;15.70;72.00;;;;;;5007885;28;19917;-80
2022/05/24 09:36:33;;;;;;;;;;;15.70;72.60;;;;;;5007431;28;19914;-81
2022/05/24 09:38:59;;;;;;;;;;;15.60;72.40;;;;;;5020553;28;19972;-81
2022/05/24 09:41:24;;;;;;;;;;;15.60;72.10;;;;;;4992063;28;19921;-81
2022/05/24 09:44:06;;;;;;;;;;;15.50;73.00;;;;;;5009069;28;20392;-81
2022/05/24 09:46:32;;;;;;;;;;;15.50;73.20;;;;;;5013712;28;19913;-81
2022/05/24 09:49:03;;;;;;;;;;;15.60;72.80;;;;;;5012330;28;19910;-81
2022/05/24 09:51:39;;;;;;;;;;;15.60;71.20;;;;;;4992173;28;19914;-81
2022/05/24 09:54:12;;;;;;;;;;;15.70;71.90;;;;;;4991024;28;19921;-82
2022/05/24 09:56:37;;;;;;;;;;;16.00;72.70;;;;;;5013411;28;20044;-85
2022/05/24 09:59:05;;;;;;;;;;;16.10;70.60;;;;;;5013119;28;20384;-82
2022/05/24 10:01:35;;;;;;;;;;;16.10;69.60;;;;;;5016082;28;19918;-82
2022/05/24 10:04:09;;;;;;;;;;;16.10;70.40;;;;;;4988503;28;19920;-83
2022/05/24 10:06:35;;;;;;;;;;;16.00;70.20;;;;;;5005250;28;19919;-81
2022/05/24 10:09:03;;;;;;;;;;;15.80;70.50;;;;;;5013734;28;19910;-82
2022/05/24 10:11:40;;;;;;;;;;;15.70;71.00;;;;;;4994801;28;19937;-82
2022/05/24 10:14:14;;;;;;;;;;;15.60;70.20;;;;;;5010243;28;19961;-82
2022/05/24 10:16:59;;;;;;;;;;;15.30;70.50;;;;;;4987368;28;19933;-83
2022/05/24 10:19:32;;;;;;;;;;;15.30;70.50;;;;;;5004197;28;19928;-82
2022/05/24 10:22:03;;;;;;;;;;;15.60;70.80;;;;;;5010338;28;19921;-82
2022/05/24 10:24:38;;;;;;;;;;;15.90;69.60;;;;;;4996859;28;19914;-83
2022/05/24 10:27:04;;;;;;;;;;;16.00;70.20;;;;;;5002400;28;19967;-86
2022/05/24 10:29:49;;;;;;;;;;;16.20;68.10;;;;;;5014522;28;19973;-83
2022/05/24 10:38:22;;;;;;;;;;;16.30;69.00;;;;;;4997345;28;20008;-85
2022/05/24 10:40:59;;;;;;;;;;;16.30;68.30;;;;;;5011194;28;19926;-84
2022/05/24 10:43:35;;;;;;;;;;;16.40;69.40;;;;;;4998242;28;20016;-83
2022/05/24 10:46:05;;;;;;;;;;;16.60;67.90;;;;;;4993868;28;20419;-84
2022/05/24 10:48:35;;;;;;;;;;;16.60;67.10;;;;;;4994154;28;20249;-83
2022/05/24 10:51:12;;;;;;;;;;;17.00;67.40;;;;;;5010194;28;19918;-83
2022/05/24 10:53:53;;;;;;;;;;;17.00;66.40;;;;;;5012564;28;20338;-83
2022/05/24 10:56:23;;;;;;;;;;;16.90;67.30;;;;;;5008965;28;19913;-82
2022/05/24 10:58:50;;;;;;;;;;;16.90;68.00;;;;;;4993542;28;19925;-81
2022/05/24 11:01:27;;;;;;;;;;;17.00;66.50;;;;;;4987443;28;19913;-82
2022/05/24 11:04:05;;;;;;;;;;;17.10;64.80;;;;;;5007432;28;19913;-81
2022/05/24 11:06:39;;;;;;;;;;;17.10;63.90;;;;;;5012602;28;19909;-82
2022/05/24 11:09:07;;;;;;;;;;;17.30;63.20;;;;;;5008704;28;19983;-83
2022/05/24 11:11:42;;;;;;;;;;;17.30;63.70;;;;;;5009904;28;19913;-79
2022/05/24 11:14:23;;;;;;;;;;;17.40;63.20;;;;;;4992466;28;19910;-81
2022/05/24 11:16:50;;;;;;;;;;;17.50;61.70;;;;;;5013046;28;19914;-81
2022/05/24 11:19:23;;;;;;;;;;;17.60;60.70;;;;;;5004171;28;20457;-81
2022/05/24 11:21:53;;;;;;;;;;;17.60;61.10;;;;;;4953614;28;19911;-81
2022/05/24 11:24:38;;;;;;;;;;;17.60;60.30;;;;;;4975080;28;20554;-79
2022/05/24 11:27:07;;;;;;;;;;;17.60;61.10;;;;;;4915060;28;20095;-79
2022/05/24 11:29:53;;;;;;;;;;;17.70;60.30;;;;;;4942021;28;20207;-79
2022/05/24 11:32:30;;;;;;;;;;;17.70;59.60;;;;;;4974229;28;19910;-79
2022/05/24 11:34:58;;;;;;;;;;;17.80;60.50;;;;;;4977958;28;19929;-80
2022/05/24 11:37:25;;;;;;;;;;;17.80;59.90;;;;;;4999275;28;19913;-78
2022/05/24 11:39:51;;;;;;;;;;;17.80;60.40;;;;;;5013317;28;19964;-81
2022/05/24 11:42:17;;;;;;;;;;;17.70;58.50;;;;;;5012109;28;19913;-80
2022/05/24 11:44:42;;;;;;;;;;;17.60;56.90;;;;;;5016413;28;20303;-80
2022/05/24 11:47:08;;;;;;;;;;;17.40;58.10;;;;;;5016532;28;19914;-80
2022/05/24 11:49:33;;;;;;;;;;;17.40;57.40;;;;;;5014510;28;19914;-81
2022/05/24 11:52:00;;;;;;;;;;;17.30;58.30;;;;;;5012468;28;20011;-80
2022/05/24 11:54:25;;;;;;;;;;;17.40;58.60;;;;;;5013251;28;19917;-80
2022/05/24 11:57:07;;;;;;;;;;;17.50;58.50;;;;;;5014548;28;19971;-81
2022/05/24 11:59:48;;;;;;;;;;;17.40;59.40;;;;;;5012238;28;19929;-81
2022/05/24 12:02:33;;;;;;;;;;;17.50;59.10;;;;;;5004141;28;19914;-81
2022/05/24 12:08:04;;;;;;;;;;;17.50;60.60;;;;;;5008172;28;20355;-79
2022/05/24 12:10:49;;;;;;;;;;;17.70;61.10;;;;;;5014795;28;20004;-80
2022/05/24 12:13:18;;;;;;;;;;;18.10;60.00;;;;;;5010447;28;19956;-80
2022/05/24 12:15:47;;;;;;;;;;;18.20;57.60;;;;;;5014426;28;19920;-81
2022/05/24 12:18:15;;;;;;;;;;;18.20;58.60;;;;;;5029593;28;19921;-80
2022/05/24 12:20:42;;;;;;;;;;;18.50;58.40;;;;;;4969288;28;19914;-81
2022/05/24 12:23:07;;;;;;;;;;;18.50;56.60;;;;;;5007502;28;20008;-79
2022/05/24 12:25:52;;;;;;;;;;;18.60;56.10;;;;;;5014376;28;19947;-82
2022/05/24 12:28:21;;;;;;;;;;;18.60;55.70;;;;;;5018756;28;19913;-82
2022/05/24 12:30:48;;;;;;;;;;;18.60;56.20;;;;;;5018167;28;19928;-82
2022/05/24 12:33:25;;;;;;;;;;;18.60;55.90;;;;;;5010545;28;20296;-82
2022/05/24 12:35:57;;;;;;;;;;;18.60;56.10;;;;;;5006349;28;19909;-82
2022/05/24 12:38:24;;;;;;;;;;;18.60;55.50;;;;;;5016171;28;20358;-82
2022/05/24 12:40:51;;;;;;;;;;;18.60;55.80;;;;;;5014311;28;20008;-80
2022/05/24 12:43:17;;;;;;;;;;;18.60;54.80;;;;;;5027524;28;19913;-83
2022/05/24 12:45:44;;;;;;;;;;;18.60;53.60;;;;;;5021785;28;19937;-81
2022/05/24 12:48:25;;;;;;;;;;;18.50;53.50;;;;;;5024375;28;19932;-86
2022/05/24 12:50:58;;;;;;;;;;;18.30;54.70;;;;;;5010662;28;19934;-84
2022/05/24 12:53:24;;;;;;;;;;;18.20;55.60;;;;;;5014692;28;19914;-83
2022/05/24 12:56:16;;;;;;;;;;;18.20;55.00;;;;;;4995524;28;19921;-82
2022/05/24 12:58:46;;;;;;;;;;;18.30;55.00;;;;;;4962200;28;19916;-80
2022/05/24 13:01:12;;;;;;;;;;;18.40;55.00;;;;;;4974525;28;19909;-82
2022/05/24 13:03:42;;;;;;;;;;;18.30;53.90;;;;;;4995540;28;19963;-83
2022/05/24 13:06:08;;;;;;;;;;;18.50;55.50;;;;;;4989041;28;20229;-81
2022/05/24 13:08:34;;;;;;;;;;;18.60;55.60;;;;;;4972661;28;20321;-81
2022/05/24 13:11:00;;;;;;;;;;;18.70;54.90;;;;;;4977376;28;20082;-81
2022/05/24 13:13:26;;;;;;;;;;;18.60;54.30;;;;;;4989235;28;19925;-82
2022/05/24 13:15:54;;;;;;;;;;;18.40;54.90;;;;;;4979721;28;20126;-83
2022/05/24 13:18:24;;;;;;;;;;;18.10;56.30;;;;;;4994076;28;20274;-85
2022/05/24 13:20:55;;;;;;;;;;;17.90;59.50;;;;;;4981105;28;19918;-90
2022/05/24 13:23:41;;;;;;;;;;;17.80;57.10;;;;;;4986601;28;19946;-81
2022/05/24 13:26:08;;;;;;;;;;;17.60;56.30;;;;;;4983866;28;19910;-84
2022/05/24 13:28:36;;;;;;;;;;;17.90;57.60;;;;;;4950897;28;19910;-84
2022/05/24 13:33:51;;;;;;;;;;;18.10;55.90;;;;;;4970376;28;19920;-81
2022/05/24 13:36:18;;;;;;;;;;;18.30;56.30;;;;;;4989509;28;19957;-85
2022/05/24 13:38:45;;;;;;;;;;;18.40;57.40;;;;;;4994059;28;19944;-88
2022/05/24 13:41:11;;;;;;;;;;;18.50;56.80;;;;;;4988305;28;20208;-83
2022/05/24 13:43:42;;;;;;;;;;;18.40;56.80;;;;;;4985459;28;19910;-81
2022/05/24 13:46:21;;;;;;;;;;;18.40;57.70;;;;;;4954474;28;20474;-81
2022/05/24 13:48:57;;;;;;;;;;;18.30;56.80;;;;;;4970079;28;20166;-81
2022/05/24 13:51:28;;;;;;;;;;;18.40;55.30;;;;;;4982143;28;19914;-83
2022/05/24 13:53:54;;;;;;;;;;;18.50;54.20;;;;;;4944206;28;20050;-83
2022/05/24 13:56:22;;;;;;;;;;;18.50;55.10;;;;;;4953189;28;19936;-84
2022/05/24 13:58:49;;;;;;;;;;;18.50;55.50;;;;;;4960830;28;19925;-84
2022/05/24 14:01:36;;;;;;;;;;;18.50;53.30;;;;;;4969214;28;19914;-86
2022/05/24 14:04:04;;;;;;;;;;;18.50;53.30;;;;;;4995817;28;19976;-83
2022/05/24 14:06:30;;;;;;;;;;;18.50;52.90;;;;;;5009680;28;19914;-83
2022/05/24 14:08:56;;;;;;;;;;;18.50;52.30;;;;;;5009963;28;20058;-86
2022/05/24 14:11:26;;;;;;;;;;;18.60;52.10;;;;;;4999308;28;19913;-83
2022/05/24 14:13:55;;;;;;;;;;;18.60;52.00;;;;;;4977893;28;19909;-89
2022/05/24 14:16:22;;;;;;;;;;;18.70;51.30;;;;;;4959325;28;19914;-82
2022/05/24 14:19:00;;;;;;;;;;;18.80;51.90;;;;;;4950209;28;20088;-86
2022/05/24 14:21:27;;;;;;;;;;;19.00;52.00;;;;;;4955395;28;19918;-83
2022/05/24 14:23:53;;;;;;;;;;;19.00;51.60;;;;;;4956100;28;20072;-82
2022/05/24 14:26:19;;;;;;;;;;;18.90;51.30;;;;;;4959981;28;19921;-83
2022/05/24 14:28:44;;;;;;;;;;;18.50;53.20;;;;;;4989211;28;19909;-82
2022/05/24 14:31:12;;;;;;;;;;;18.00;55.10;;;;;;4982810;28;20414;-82
2022/05/24 14:33:38;;;;;;;;;;;17.60;56.80;;;;;;4969985;28;19941;-80
2022/05/24 14:36:03;;;;;;;;;;;17.30;58.00;;;;;;4974476;28;19910;-79
2022/05/24 14:38:30;;;;;;;;;;;17.20;58.50;;;;;;4978106;28;20102;-79
2022/05/24 14:43:25;;;;;;;;;;;17.40;58.50;;;;;;4983627;28;20524;-79
2022/05/24 14:45:51;;;;;;;;;;;17.60;58.90;;;;;;4984297;28;19934;-78
2022/05/24 14:48:17;;;;;;;;;;;17.80;57.80;;;;;;4970961;28;19914;-78
2022/05/24 14:50:44;;;;;;;;;;;18.00;56.80;;;;;;4984998;28;20307;-78
2022/05/24 14:53:09;;;;;;;;;;;18.10;57.40;;;;;;4969143;28;20017;-78
2022/05/24 14:55:36;;;;;;;;;;;18.20;55.40;;;;;;4968249;28;19975;-79
2022/05/24 14:58:02;;;;;;;;;;;18.20;54.90;;;;;;4971961;28;20258;-78
2022/05/24 15:00:28;;;;;;;;;;;18.30;54.60;;;;;;4969574;28;19918;-78
2022/05/24 15:02:53;;;;;;;;;;;18.50;54.60;;;;;;4949140;28;20018;-78
2022/05/24 15:05:19;;;;;;;;;;;18.60;53.30;;;;;;4970425;28;19945;-78
2022/05/24 15:16:00;;;;;;;;;;;18.60;51.80;;;;;;4983078;28;20669;-80
2022/05/24 15:18:26;;;;;;;;;;;18.60;52.80;;;;;;4959346;28;19910;-78